»·PEaware :: N800DW KPDX-KOTH

N800DW :: KPDX-KOTH

FLIGHT INFORMATION

Flight Status: Arrived
Operator: Privately registered:
United States
More flights under this callsign
Pilot: Scott L. (17677)
Aircraft: Unknown
(SF50)
More flights by this aircraft type
Origin: KPDX Portland Intl
United States
Destination: KOTH North Bend Mun
United States
More flights between these airports :: More routes between these airports
Route: +PTLD1 UBG V287 OTH
File this flight plan on PilotEdge
Remarks:
Altitude:
(Current/Filed)
18,000ft
Speed:
(Current/Filed)
300kts
Departed: 05-Oct-18 07:37 PM
Arrived: 05-Oct-18 08:19 PM
Distance/Time
Traveled:
148nm/0:42
Distance/Time
To Go:
Arrived

Flight Plot

Page will automatically refresh every two minutes.

Flight plan parsing failed; only flown route is shown


Map Options




Map Legend


Flown Route
Filed Route
Departure Airport
Arrival Airport
Navaid (VOR, NDB)
Fix

Horizontal Profiles

Position Reports

Time Latitude Longitude Heading Altitude Ground
Speed
05-Oct-18 19:29 45.586666 -122.583901 117 33ft 0kts
05-Oct-18 19:30 45.586666 -122.583901 117 33ft 0kts
05-Oct-18 19:31 45.586666 -122.583901 117 33ft 0kts
05-Oct-18 19:32 45.586666 -122.583901 117 33ft 0kts
05-Oct-18 19:33 45.586666 -122.583901 117 33ft 0kts
05-Oct-18 19:34 45.587009 -122.582833 30 33ft 9kts
05-Oct-18 19:35 45.590627 -122.588102 298 33ft 36kts
05-Oct-18 19:36 45.593930 -122.595930 0 33ft 0kts
05-Oct-18 19:37 45.593930 -122.595930 0 33ft 0kts
05-Oct-18 19:38 45.594479 -122.595564 56 33ft 8kts
05-Oct-18 19:39 45.586397 -122.573402 116 828ft 150kts
05-Oct-18 19:40 45.559671 -122.503339 117 3058ft 239kts
05-Oct-18 19:41 45.507343 -122.462589 210 5013ft 277kts
05-Oct-18 19:42 45.493899 -122.569601 264 7021ft 286kts
05-Oct-18 19:43 45.469369 -122.670743 240 9011ft 262kts
05-Oct-18 19:44 45.436338 -122.759577 241 10989ft 249kts
05-Oct-18 19:45 45.409483 -122.830393 243 12640ft 241kts
05-Oct-18 19:46 45.378292 -122.912394 243 14613ft 234kts
05-Oct-18 19:47 45.324553 -122.995316 211 15486ft 269kts
05-Oct-18 19:48 45.267667 -123.032472 209 16315ft 271kts
05-Oct-18 19:49 45.199108 -123.076024 209 17301ft 271kts
05-Oct-18 19:50 45.119108 -123.126608 209 18449ft 270kts
05-Oct-18 19:51 45.062147 -123.162399 211 19264ft 270kts
05-Oct-18 19:52 44.993079 -123.205923 212 19943ft 282kts
05-Oct-18 19:53 44.918757 -123.252698 212 19947ft 301kts
05-Oct-18 19:54 44.842131 -123.300634 212 19953ft 307kts
05-Oct-18 19:55 44.763850 -123.349448 212 19968ft 308kts
05-Oct-18 19:56 44.685398 -123.398239 212 19968ft 309kts
05-Oct-18 19:57 44.607260 -123.446682 212 19968ft 309kts
05-Oct-18 19:58 44.528551 -123.495378 212 19808ft 314kts
05-Oct-18 19:59 44.449491 -123.543884 212 18580ft 278kts
05-Oct-18 20:00 44.388093 -123.581529 214 16967ft 221kts
05-Oct-18 20:01 44.333254 -123.615450 214 15435ft 213kts
05-Oct-18 20:02 44.279717 -123.648281 214 13907ft 209kts
05-Oct-18 20:03 44.214668 -123.688493 209 12564ft 304kts
05-Oct-18 20:04 44.127529 -123.692873 169 11721ft 336kts
05-Oct-18 20:05 44.045969 -123.677508 184 14301ft 275kts
05-Oct-18 20:06 43.966021 -123.673797 186 14075ft 331kts
05-Oct-18 20:07 43.873691 -123.695246 200 11705ft 351kts
05-Oct-18 20:08 43.782044 -123.734788 203 9261ft 339kts
05-Oct-18 20:09 43.709918 -123.775162 206 6674ft 252kts
05-Oct-18 20:10 43.651360 -123.811715 206 5644ft 202kts
05-Oct-18 20:11 43.602900 -123.841808 206 5667ft 195kts
05-Oct-18 20:12 43.551067 -123.872315 204 5645ft 207kts
05-Oct-18 20:13 43.496865 -123.899111 202 5634ft 199kts
05-Oct-18 20:14 43.447629 -123.920921 201 5661ft 179kts
05-Oct-18 20:15 43.415917 -123.958019 258 5670ft 160kts
05-Oct-18 20:16 43.412049 -124.027738 263 3292ft 208kts
05-Oct-18 20:17 43.413577 -124.092936 266 3053ft 154kts
05-Oct-18 20:18 43.415237 -124.154306 266 2926ft 132kts
05-Oct-18 20:19 43.421437 -124.202190 287 1317ft 132kts
05-Oct-18 20:20 43.421389 -124.244364 236 18ft 98kts
05-Oct-18 20:21 43.417770 -124.250787 162 8ft 7kts
05-Oct-18 20:22 43.417128 -124.249135 344 8ft 14kts
05-Oct-18 20:23 43.417083 -124.249017 298 8ft 0kts
05-Oct-18 20:24 43.417865 -124.249538 17 8ft 13kts
05-Oct-18 20:25 43.417370 -124.246940 85 9ft 0kts
05-Oct-18 20:26 43.417370 -124.246940 85 9ft 0kts
05-Oct-18 20:27 43.417370 -124.246940 85 9ft 0kts
05-Oct-18 20:28 43.417370 -124.246940 85 9ft 0kts
05-Oct-18 20:29 43.417370 -124.246940 85 9ft 0kts
05-Oct-18 20:30 43.417370 -124.246940 85 9ft 0kts
05-Oct-18 20:31 43.417370 -124.246940 85 9ft 0kts
05-Oct-18 20:32 43.417370 -124.246940 85 9ft 0kts
05-Oct-18 20:33 43.417370 -124.246940 85 9ft 0kts
05-Oct-18 20:34 43.417370 -124.246940 85 9ft 0kts

Navigation Log

Ident Type
Flight plan parsing failed, navigation log unavailable